Terminal Aerodrome Forecast
Issued by NWS Tuscon, AZ

Home | Current Version | Previous Version | Text Only | Print | Product List | Glossary On
Versions: 1 2 3 4 5 6 7 8 9 10 11 12 13 14 15
000
FTUS45 KTWC 030700 AAA
TAFDUG
TAF AMD
KDUG 030742Z 0308/0406 35008KT P6SM VCSH FEW015 BKN025 OVC035
     FM030800 VRB04KT P6SM SCT025 BKN035 OVC060
     FM031400 32006KT P6SM SCT060 BKN110
     FM031800 22016G26KT P6SM SCT050 SCT110
     FM040300 23011KT P6SM SCT050 BKN090=

USA.gov is the U.S. government's official web portal to all federal, state and local government web resources and services.